Time;durP1;ratioP1;P1;durP2;ratioP2;P2;SDS_P1;SDS_P2;PMS_P1;PMS_P2;Temp;Humidity;BMP_temperature;BMP_pressure;BME280_temperature;BME280_humidity;BME280_pressure;Samples;Min_cycle;Max_cycle;Signal;HPM_P1;HPM_P2
2021/04/11 00:01:57;;;;;;;7.50;4.95;;;;;;;;;;3590819;39;20296;-52
2021/04/11 00:04:23;;;;;;;13.07;5.60;;;;;;;;;;3591906;39;20053;-50
2021/04/11 00:06:48;;;;;;;10.85;5.70;;;;;;;;;;3589744;39;20398;-51
2021/04/11 00:09:14;;;;;;;9.75;4.97;;;;;;;;;;3592353;40;20072;-53
2021/04/11 00:11:39;;;;;;;8.50;5.47;;;;;;;;;;3588509;39;20154;-53
2021/04/11 00:14:06;;;;;;;6.47;4.60;;;;;;;;;;3589825;39;20598;-55
2021/04/11 00:16:31;;;;;;;7.05;5.38;;;;;;;;;;3589254;40;20032;-54
2021/04/11 00:18:57;;;;;;;8.60;5.95;;;;;;;;;;3592424;39;20051;-54
2021/04/11 00:21:22;;;;;;;8.23;5.30;;;;;;;;;;3591576;39;20035;-54
2021/04/11 00:23:48;;;;;;;7.30;4.88;;;;;;;;;;3591796;40;20131;-54
2021/04/11 00:26:13;;;;;;;7.32;5.05;;;;;;;;;;3591918;39;20039;-55
2021/04/11 00:28:39;;;;;;;7.35;4.88;;;;;;;;;;3589764;39;20036;-56
2021/04/11 00:31:04;;;;;;;6.93;4.97;;;;;;;;;;3591494;40;20380;-51
2021/04/11 00:33:32;;;;;;;9.68;5.43;;;;;;;;;;3590168;39;20040;-55
2021/04/11 00:36:01;;;;;;;8.90;5.63;;;;;;;;;;3590217;39;20047;-54
2021/04/11 00:38:28;;;;;;;8.75;5.60;;;;;;;;;;3591277;40;20036;-56
2021/04/11 00:41:00;;;;;;;8.00;5.10;;;;;;;;;;3592354;40;20028;-55
2021/04/11 00:43:26;;;;;;;12.63;5.97;;;;;;;;;;3588631;39;20053;-53
2021/04/11 00:46:20;;;;;;;7.00;4.90;;;;;;;;;;3593321;40;20125;-52
2021/04/11 00:48:46;;;;;;;9.02;5.78;;;;;;;;;;3591525;39;20092;-53
2021/04/11 00:51:14;;;;;;;6.75;5.47;;;;;;;;;;3589233;40;20073;-53
2021/04/11 00:53:40;;;;;;;7.15;5.20;;;;;;;;;;3591713;39;20055;-53
2021/04/11 00:56:07;;;;;;;13.35;5.20;;;;;;;;;;3589706;39;20046;-55
2021/04/11 00:58:34;;;;;;;10.55;5.63;;;;;;;;;;3590135;40;20029;-54
2021/04/11 01:01:01;;;;;;;6.72;5.03;;;;;;;;;;3591798;40;20044;-54
2021/04/11 01:03:29;;;;;;;6.72;4.80;;;;;;;;;;3593499;39;20117;-54
2021/04/11 01:05:55;;;;;;;7.20;4.68;;;;;;;;;;3589875;40;20025;-53
2021/04/11 01:08:24;;;;;;;7.03;4.63;;;;;;;;;;3591966;39;20056;-54
2021/04/11 01:10:57;;;;;;;9.30;5.10;;;;;;;;;;3589518;40;20159;-52
2021/04/11 01:13:22;;;;;;;9.18;4.93;;;;;;;;;;3590462;39;20033;-54
2021/04/11 01:15:48;;;;;;;8.75;5.35;;;;;;;;;;3590227;40;20416;-52
2021/04/11 01:18:14;;;;;;;8.27;5.38;;;;;;;;;;3588498;40;20044;-53
2021/04/11 01:20:40;;;;;;;7.13;4.75;;;;;;;;;;3591060;40;20060;-52
2021/04/11 01:23:20;;;;;;;11.13;5.68;;;;;;;;;;3593922;39;20020;-54
2021/04/11 01:25:47;;;;;;;7.47;5.40;;;;;;;;;;3591060;40;20040;-51
2021/04/11 01:28:38;;;;;;;8.65;5.65;;;;;;;;;;3592045;39;20035;-51
2021/04/11 01:31:07;;;;;;;10.48;6.00;;;;;;;;;;3591832;40;20025;-53
2021/04/11 01:33:38;;;;;;;9.73;5.15;;;;;;;;;;3590496;40;20035;-55
2021/04/11 01:36:06;;;;;;;6.43;4.90;;;;;;;;;;3594352;40;20094;-54
2021/04/11 01:38:31;;;;;;;10.10;5.20;;;;;;;;;;3592136;39;20040;-52
2021/04/11 01:41:06;;;;;;;8.20;5.70;;;;;;;;;;3591273;40;20043;-55
2021/04/11 01:43:34;;;;;;;7.45;5.70;;;;;;;;;;3592849;39;20047;-56
2021/04/11 01:46:00;;;;;;;8.05;5.60;;;;;;;;;;3591782;39;20044;-53
2021/04/11 01:48:26;;;;;;;9.43;4.82;;;;;;;;;;3590640;39;20044;-54
2021/04/11 01:50:55;;;;;;;9.40;5.55;;;;;;;;;;3592808;39;20044;-53
2021/04/11 01:53:22;;;;;;;13.13;5.65;;;;;;;;;;3590951;40;20038;-52
2021/04/11 01:55:49;;;;;;;7.50;5.40;;;;;;;;;;3592342;39;20031;-55
2021/04/11 01:58:15;;;;;;;9.50;5.85;;;;;;;;;;3593982;40;20032;-53
2021/04/11 02:00:47;;;;;;;10.13;5.50;;;;;;;;;;3590559;39;20040;-54
2021/04/11 02:03:15;;;;;;;8.02;5.57;;;;;;;;;;3590694;39;20137;-55
2021/04/11 02:05:42;;;;;;;12.50;5.78;;;;;;;;;;3592829;40;20079;-54
2021/04/11 02:08:10;;;;;;;13.80;6.15;;;;;;;;;;3591395;40;20045;-54
2021/04/11 02:10:39;;;;;;;8.45;5.25;;;;;;;;;;3590754;39;20039;-54
2021/04/11 02:13:07;;;;;;;10.50;6.10;;;;;;;;;;3592198;39;20422;-53
2021/04/11 02:15:40;;;;;;;7.50;5.10;;;;;;;;;;3590926;39;20036;-55
2021/04/11 02:18:06;;;;;;;8.15;5.38;;;;;;;;;;3591909;40;20349;-55
2021/04/11 02:20:32;;;;;;;10.00;6.15;;;;;;;;;;3591084;40;20047;-53
2021/04/11 02:22:58;;;;;;;7.45;5.13;;;;;;;;;;3591023;39;20045;-54
2021/04/11 02:25:28;;;;;;;9.98;5.25;;;;;;;;;;3590487;40;20044;-55
2021/04/11 02:27:55;;;;;;;11.38;6.30;;;;;;;;;;3590474;40;20057;-54
2021/04/11 02:30:24;;;;;;;12.68;5.72;;;;;;;;;;3591211;39;20033;-55
2021/04/11 02:32:50;;;;;;;7.75;5.57;;;;;;;;;;3589995;40;20130;-53
2021/04/11 02:35:20;;;;;;;7.35;5.68;;;;;;;;;;3593593;39;20044;-52
2021/04/11 02:37:49;;;;;;;6.60;5.00;;;;;;;;;;3589301;40;20120;-54
2021/04/11 02:40:23;;;;;;;11.30;6.07;;;;;;;;;;3590485;39;20055;-55
2021/04/11 02:42:48;;;;;;;11.52;6.13;;;;;;;;;;3593329;39;20031;-54
2021/04/11 02:45:22;;;;;;;8.35;6.18;;;;;;;;;;3589193;40;20366;-53
2021/04/11 02:47:48;;;;;;;11.85;5.85;;;;;;;;;;3590911;40;20028;-54
2021/04/11 02:50:15;;;;;;;10.88;5.93;;;;;;;;;;3589198;39;20052;-53
2021/04/11 02:52:51;;;;;;;8.95;6.05;;;;;;;;;;3589626;39;20041;-56
2021/04/11 02:55:17;;;;;;;11.45;5.30;;;;;;;;;;3592073;40;20404;-52
2021/04/11 02:57:43;;;;;;;7.63;5.50;;;;;;;;;;3592292;40;20082;-53
2021/04/11 03:00:17;;;;;;;6.53;4.90;;;;;;;;;;3589523;40;20055;-52
2021/04/11 03:02:42;;;;;;;9.02;5.22;;;;;;;;;;3591316;39;20047;-52
2021/04/11 03:05:10;;;;;;;9.82;5.75;;;;;;;;;;3592326;39;20293;-52
2021/04/11 03:07:45;;;;;;;8.10;5.75;;;;;;;;;;3590653;40;20028;-54
2021/04/11 03:10:17;;;;;;;7.97;5.60;;;;;;;;;;3592476;39;20119;-53
2021/04/11 03:12:44;;;;;;;7.60;5.13;;;;;;;;;;3591797;39;20041;-55
2021/04/11 03:15:12;;;;;;;8.48;5.68;;;;;;;;;;3589429;40;20048;-52
2021/04/11 03:17:38;;;;;;;13.82;5.63;;;;;;;;;;3592915;40;20487;-54
2021/04/11 03:20:12;;;;;;;8.57;5.22;;;;;;;;;;3591434;40;20296;-52
2021/04/11 03:22:38;;;;;;;10.35;5.40;;;;;;;;;;3589577;39;20047;-50
2021/04/11 03:25:05;;;;;;;11.35;5.65;;;;;;;;;;3591104;40;20029;-56
2021/04/11 03:27:39;;;;;;;7.75;5.15;;;;;;;;;;3591496;39;20024;-54
2021/04/11 03:30:16;;;;;;;9.48;5.43;;;;;;;;;;3590769;39;20284;-53
2021/04/11 03:32:47;;;;;;;10.27;5.30;;;;;;;;;;3593219;40;20037;-55
2021/04/11 03:35:17;;;;;;;10.75;5.60;;;;;;;;;;3590336;39;20041;-55
2021/04/11 03:37:43;;;;;;;7.47;4.85;;;;;;;;;;3590289;40;20338;-55
2021/04/11 03:40:16;;;;;;;7.90;5.88;;;;;;;;;;3592042;39;20036;-53
2021/04/11 03:42:45;;;;;;;8.52;6.22;;;;;;;;;;3589766;39;20092;-56
2021/04/11 03:45:12;;;;;;;8.48;5.50;;;;;;;;;;3591754;39;20042;-55
2021/04/11 03:47:47;;;;;;;9.18;5.40;;;;;;;;;;3591023;40;20112;-55
2021/04/11 03:50:16;;;;;;;8.70;6.15;;;;;;;;;;3589901;40;20035;-56
2021/04/11 03:52:53;;;;;;;8.52;5.97;;;;;;;;;;3586503;40;20375;-53
2021/04/11 03:55:22;;;;;;;7.57;5.40;;;;;;;;;;3592756;39;20039;-57
2021/04/11 03:57:53;;;;;;;12.50;6.38;;;;;;;;;;3590860;39;20040;-53
2021/04/11 04:00:29;;;;;;;9.15;6.70;;;;;;;;;;3591182;40;20348;-55
2021/04/11 04:02:58;;;;;;;11.30;7.72;;;;;;;;;;3591976;39;20036;-55
2021/04/11 04:05:27;;;;;;;12.93;7.65;;;;;;;;;;3590146;40;20032;-53
2021/04/11 04:07:56;;;;;;;10.52;7.72;;;;;;;;;;3592241;40;20276;-56
2021/04/11 04:10:28;;;;;;;13.05;7.72;;;;;;;;;;3590234;40;20260;-51
2021/04/11 04:13:04;;;;;;;20.00;8.43;;;;;;;;;;3590690;39;20072;-57
2021/04/11 04:15:51;;;;;;;12.55;8.73;;;;;;;;;;3592218;40;20044;-52
2021/04/11 04:18:46;;;;;;;11.45;7.45;;;;;;;;;;3590187;40;20265;-55
2021/04/11 04:21:41;;;;;;;11.15;7.85;;;;;;;;;;3592381;40;20037;-55
2021/04/11 04:24:26;;;;;;;12.52;7.53;;;;;;;;;;3589741;40;20036;-55
2021/04/11 04:26:59;;;;;;;12.80;7.32;;;;;;;;;;3589827;40;20032;-53
2021/04/11 04:29:51;;;;;;;10.73;6.78;;;;;;;;;;3591757;40;20100;-52
2021/04/11 04:32:31;;;;;;;8.70;6.35;;;;;;;;;;3590832;40;20076;-53
2021/04/11 04:35:31;;;;;;;10.87;7.30;;;;;;;;;;3591947;39;20124;-52
2021/04/11 04:38:27;;;;;;;8.85;6.50;;;;;;;;;;3592422;40;20036;-50
2021/04/11 04:41:15;;;;;;;8.63;6.05;;;;;;;;;;3593105;39;20281;-53
2021/04/11 04:43:57;;;;;;;12.30;7.15;;;;;;;;;;3591870;39;20149;-55
2021/04/11 04:46:53;;;;;;;9.27;6.38;;;;;;;;;;3591144;39;20040;-54
2021/04/11 04:49:27;;;;;;;10.25;6.30;;;;;;;;;;3587844;40;20065;-54
2021/04/11 04:52:16;;;;;;;9.00;5.60;;;;;;;;;;3591138;40;20182;-55
2021/04/11 04:54:59;;;;;;;9.02;6.13;;;;;;;;;;3591630;39;20085;-55
2021/04/11 04:57:37;;;;;;;8.32;5.43;;;;;;;;;;3593557;39;20036;-55
2021/04/11 05:00:18;;;;;;;9.23;5.20;;;;;;;;;;3591853;40;20371;-54
2021/04/11 05:02:54;;;;;;;7.03;4.53;;;;;;;;;;3592182;39;20168;-54
2021/04/11 05:05:20;;;;;;;8.80;5.22;;;;;;;;;;3592381;39;20024;-55
2021/04/11 05:07:55;;;;;;;11.45;5.32;;;;;;;;;;3593228;40;20036;-54
2021/04/11 05:10:30;;;;;;;7.00;4.80;;;;;;;;;;3591054;40;20363;-56
2021/04/11 05:13:04;;;;;;;9.45;5.18;;;;;;;;;;3591801;39;20041;-53
2021/04/11 05:15:40;;;;;;;6.45;4.57;;;;;;;;;;3593520;40;20033;-54
2021/04/11 05:18:27;;;;;;;8.65;4.90;;;;;;;;;;3589764;39;20036;-55
2021/04/11 05:21:00;;;;;;;7.28;4.50;;;;;;;;;;3594310;39;20047;-56
2021/04/11 05:23:28;;;;;;;7.47;4.93;;;;;;;;;;3589666;39;20556;-58
2021/04/11 05:26:02;;;;;;;8.00;4.82;;;;;;;;;;3591628;40;20032;-55
2021/04/11 05:28:55;;;;;;;7.35;4.63;;;;;;;;;;3592810;40;20051;-55
2021/04/11 05:31:26;;;;;;;9.23;4.50;;;;;;;;;;3590751;40;20045;-56
2021/04/11 05:33:53;;;;;;;8.45;4.70;;;;;;;;;;3591545;39;20380;-57
2021/04/11 05:36:22;;;;;;;6.78;4.68;;;;;;;;;;3592036;39;20293;-54
2021/04/11 05:39:08;;;;;;;6.80;4.10;;;;;;;;;;3590385;40;20037;-54
2021/04/11 05:41:51;;;;;;;6.65;4.32;;;;;;;;;;3592165;39;20040;-51
2021/04/11 05:44:22;;;;;;;6.63;4.28;;;;;;;;;;3589791;40;20040;-54
2021/04/11 05:47:14;;;;;;;5.35;3.92;;;;;;;;;;3593127;40;20055;-55
2021/04/11 05:49:45;;;;;;;6.35;3.50;;;;;;;;;;3590820;39;20429;-55
2021/04/11 05:52:16;;;;;;;6.32;5.00;;;;;;;;;;3589173;40;20125;-55
2021/04/11 05:54:46;;;;;;;;;;;;;;;;;;3589914;40;20291;-51
2021/04/11 05:57:26;;;;;;;12.93;4.60;;;;;;;;;;3594023;39;20187;-54
2021/04/11 05:59:54;;;;;;;8.68;4.78;;;;;;;;;;3591615;39;20372;-56
2021/04/11 06:02:38;;;;;;;7.00;4.28;;;;;;;;;;3588027;40;20037;-57
2021/04/11 06:05:09;;;;;;;8.02;3.90;;;;;;;;;;3589666;39;20076;-55
2021/04/11 06:07:38;;;;;;;;;;;;;;;;;;3589259;39;20028;-55
2021/04/11 06:10:13;;;;;;;7.82;4.40;;;;;;;;;;3589460;40;19960;-55
2021/04/11 06:12:42;;;;;;;6.60;4.13;;;;;;;;;;3587888;39;20573;-57
2021/04/11 06:15:35;;;;;;;5.85;4.18;;;;;;;;;;3589097;40;20082;-53
2021/04/11 06:18:04;;;;;;;7.40;4.22;;;;;;;;;;3589406;40;20056;-55
2021/04/11 06:20:30;;;;;;;7.13;4.57;;;;;;;;;;3588048;40;20035;-54
2021/04/11 06:23:10;;;;;;;9.20;5.07;;;;;;;;;;3588579;40;20049;-53
2021/04/11 06:25:48;;;;;;;6.32;4.20;;;;;;;;;;3588617;39;20032;-56
2021/04/11 06:28:24;;;;;;;9.55;5.35;;;;;;;;;;3589301;40;20041;-53
2021/04/11 06:31:03;;;;;;;6.88;5.22;;;;;;;;;;3588840;39;20048;-54
2021/04/11 06:33:43;;;;;;;7.13;4.82;;;;;;;;;;3589715;40;20029;-55
2021/04/11 06:36:19;;;;;;;9.73;5.40;;;;;;;;;;3588621;40;20312;-53
2021/04/11 06:38:55;;;;;;;8.75;4.60;;;;;;;;;;3588258;40;20032;-53
2021/04/11 06:41:59;;;;;;;9.20;5.43;;;;;;;;;;3587581;39;20044;-54
2021/04/11 06:44:45;;;;;;;10.02;5.10;;;;;;;;;;3587802;40;20047;-55
2021/04/11 06:47:52;;;;;;;9.20;5.50;;;;;;;;;;3588957;40;20040;-54
2021/04/11 06:50:43;;;;;;;8.13;5.90;;;;;;;;;;3588128;40;20033;-55
2021/04/11 06:53:30;;;;;;;11.68;5.00;;;;;;;;;;3591870;39;20048;-53
2021/04/11 06:55:58;;;;;;;6.63;4.78;;;;;;;;;;3589511;39;20036;-55
2021/04/11 06:58:35;;;;;;;9.63;4.63;;;;;;;;;;3587616;40;20048;-53
2021/04/11 07:01:28;;;;;;;7.07;4.88;;;;;;;;;;3587720;40;20048;-55
2021/04/11 07:04:20;;;;;;;7.72;4.85;;;;;;;;;;3588516;40;20033;-54
2021/04/11 07:07:13;;;;;;;11.65;4.97;;;;;;;;;;3588654;40;20264;-54
2021/04/11 07:10:00;;;;;;;6.90;4.97;;;;;;;;;;3587833;40;20063;-53
2021/04/11 07:12:25;;;;;;;6.78;4.80;;;;;;;;;;3587992;39;20049;-54
2021/04/11 07:15:20;;;;;;;7.07;4.90;;;;;;;;;;3587291;39;20137;-55
2021/04/11 07:18:18;;;;;;;8.52;5.25;;;;;;;;;;3587058;39;20048;-56
2021/04/11 07:21:05;;;;;;;13.40;4.70;;;;;;;;;;3589794;40;20086;-52
2021/04/11 07:23:55;;;;;;;6.82;4.28;;;;;;;;;;3587267;40;20032;-55
2021/04/11 07:26:53;;;;;;;7.25;4.93;;;;;;;;;;3588812;40;20044;-55
2021/04/11 07:30:09;;;;;;;13.25;6.05;;;;;;;;;;3586910;40;20029;-57
2021/04/11 07:33:09;;;;;;;8.77;5.47;;;;;;;;;;3585536;40;20048;-55
2021/04/11 07:35:46;;;;;;;8.32;4.93;;;;;;;;;;3590008;40;20048;-54
2021/04/11 07:38:17;;;;;;;8.02;4.78;;;;;;;;;;3588540;39;20060;-55
2021/04/11 07:41:13;;;;;;;11.02;4.63;;;;;;;;;;3587952;40;20052;-54
2021/04/11 07:43:45;;;;;;;7.82;4.90;;;;;;;;;;3588024;39;20110;-56
2021/04/11 07:46:13;;;;;;;9.35;4.85;;;;;;;;;;3587837;39;20047;-54
2021/04/11 07:49:21;;;;;;;12.93;4.65;;;;;;;;;;3591375;39;20074;-53
2021/04/11 07:51:47;;;;;;;8.70;5.03;;;;;;;;;;3587597;40;20048;-53
2021/04/11 07:54:37;;;;;;;14.05;4.70;;;;;;;;;;3589339;40;20125;-53
2021/04/11 07:57:20;;;;;;;8.73;4.37;;;;;;;;;;3589263;40;20048;-52
2021/04/11 08:00:07;;;;;;;5.68;3.78;;;;;;;;;;3587728;40;20032;-52
2021/04/11 08:02:42;;;;;;;6.03;3.40;;;;;;;;;;3588297;39;20047;-54
2021/04/11 08:05:07;;;;;;;8.20;3.63;;;;;;;;;;3588115;39;20028;-57
2021/04/11 08:07:57;;;;;;;11.57;3.50;;;;;;;;;;3587384;40;20040;-57
2021/04/11 08:11:00;;;;;;;5.68;3.10;;;;;;;;;;3586437;40;20126;-56
2021/04/11 08:13:50;;;;;;;6.13;3.33;;;;;;;;;;3586836;39;20039;-51
2021/04/11 08:16:29;;;;;;;6.55;3.60;;;;;;;;;;3586989;40;20035;-54
2021/04/11 08:19:26;;;;;;;4.45;2.58;;;;;;;;;;3595356;39;20037;-53
2021/04/11 08:22:24;;;;;;;4.93;2.50;;;;;;;;;;3587292;40;20057;-52
2021/04/11 08:25:15;;;;;;;8.98;2.50;;;;;;;;;;3587410;40;20071;-56
2021/04/11 08:27:43;;;;;;;8.23;2.88;;;;;;;;;;3587705;40;20044;-53
2021/04/11 08:30:21;;;;;;;7.22;3.00;;;;;;;;;;3588802;40;20573;-54
2021/04/11 08:33:13;;;;;;;4.97;2.47;;;;;;;;;;3589014;40;20056;-55
2021/04/11 08:35:50;;;;;;;7.20;3.22;;;;;;;;;;3589143;40;20122;-55
2021/04/11 08:38:28;;;;;;;6.78;2.97;;;;;;;;;;3589077;40;20626;-54
2021/04/11 08:41:24;;;;;;;6.65;2.88;;;;;;;;;;3589534;40;20129;-55
2021/04/11 08:44:19;;;;;;;5.03;2.70;;;;;;;;;;3589165;39;20176;-56
2021/04/11 08:46:59;;;;;;;8.02;2.20;;;;;;;;;;3589030;40;20191;-56
2021/04/11 08:49:46;;;;;;;5.25;2.88;;;;;;;;;;3588457;39;20044;-57
2021/04/11 08:52:43;;;;;;;7.22;2.67;;;;;;;;;;3589554;40;20085;-54
2021/04/11 08:55:33;;;;;;;4.72;2.80;;;;;;;;;;3588389;40;20922;-56
2021/04/11 08:58:26;;;;;;;6.10;3.13;;;;;;;;;;3589696;40;20032;-55
2021/04/11 09:01:04;;;;;;;5.80;2.85;;;;;;;;;;3588780;40;20033;-57
2021/04/11 09:04:07;;;;;;;4.93;2.70;;;;;;;;;;3587907;40;20048;-56
2021/04/11 09:06:59;;;;;;;6.43;2.10;;;;;;;;;;3588942;40;20405;-54
2021/04/11 09:09:34;;;;;;;5.60;2.63;;;;;;;;;;3589000;40;20132;-57
2021/04/11 09:12:21;;;;;;;3.75;2.45;;;;;;;;;;3589513;39;20330;-56
2021/04/11 09:14:51;;;;;;;4.32;2.13;;;;;;;;;;3588759;39;20062;-57
2021/04/11 09:17:32;;;;;;;5.53;2.17;;;;;;;;;;3588079;40;20064;-54
2021/04/11 09:20:09;;;;;;;;;;;;;;;;;;3589596;40;20037;-52
2021/04/11 09:22:44;;;;;;;7.20;2.20;;;;;;;;;;3588349;40;19929;-57
2021/04/11 09:25:22;;;;;;;4.10;2.10;;;;;;;;;;3588950;39;20275;-55
2021/04/11 09:27:59;;;;;;;4.22;1.95;;;;;;;;;;3589049;40;20295;-56
2021/04/11 09:31:10;;;;;;;4.78;2.40;;;;;;;;;;3588119;40;20033;-54
2021/04/11 09:34:09;;;;;;;5.40;2.60;;;;;;;;;;3588557;40;20141;-55
2021/04/11 09:36:57;;;;;;;3.55;2.03;;;;;;;;;;3588555;40;20047;-57
2021/04/11 09:39:54;;;;;;;4.38;2.20;;;;;;;;;;3588839;40;20035;-56
2021/04/11 09:42:39;;;;;;;7.78;2.22;;;;;;;;;;3589303;39;20445;-53
2021/04/11 09:45:42;;;;;;;4.40;2.10;;;;;;;;;;3588720;40;20056;-56
2021/04/11 09:48:45;;;;;;;4.78;2.25;;;;;;;;;;3592967;39;20066;-55
2021/04/11 09:52:01;;;;;;;4.13;2.10;;;;;;;;;;3588354;40;20036;-54
2021/04/11 09:54:58;;;;;;;7.03;2.75;;;;;;;;;;3585889;40;20047;-54
2021/04/11 09:57:50;;;;;;;8.27;2.65;;;;;;;;;;3581901;39;20368;-52
2021/04/11 10:00:39;;;;;;;5.28;2.42;;;;;;;;;;3589687;40;20029;-56
2021/04/11 10:03:29;;;;;;;4.75;2.58;;;;;;;;;;3589945;40;20028;-54
2021/04/11 10:06:00;;;;;;;6.63;3.10;;;;;;;;;;3588614;39;20352;-56
2021/04/11 10:08:43;;;;;;;5.72;2.75;;;;;;;;;;3590019;39;20037;-53
2021/04/11 10:11:43;;;;;;;6.75;2.58;;;;;;;;;;3588695;40;20472;-57
2021/04/11 10:14:39;;;;;;;5.35;2.60;;;;;;;;;;3589635;40;20044;-56
2021/04/11 10:17:13;;;;;;;5.80;2.55;;;;;;;;;;3588860;40;20244;-55
2021/04/11 10:20:04;;;;;;;4.60;2.45;;;;;;;;;;3588402;40;20052;-57
2021/04/11 10:22:39;;;;;;;5.40;2.33;;;;;;;;;;3588633;40;20141;-53
2021/04/11 10:25:26;;;;;;;6.22;2.20;;;;;;;;;;3588788;40;20043;-51
2021/04/11 10:28:03;;;;;;;3.40;2.05;;;;;;;;;;3587903;39;20044;-55
2021/04/11 10:30:31;;;;;;;4.60;2.35;;;;;;;;;;3589394;39;20047;-57
2021/04/11 10:33:08;;;;;;;5.75;2.60;;;;;;;;;;3594376;40;20085;-54
2021/04/11 10:35:58;;;;;;;5.72;2.50;;;;;;;;;;3588359;40;20125;-55
2021/04/11 10:38:39;;;;;;;5.28;2.15;;;;;;;;;;3589761;39;20335;-54
2021/04/11 10:41:30;;;;;;;6.38;1.75;;;;;;;;;;3587955;40;20108;-56
2021/04/11 10:44:19;;;;;;;6.25;2.53;;;;;;;;;;3588181;40;20449;-54
2021/04/11 10:46:53;;;;;;;5.82;2.10;;;;;;;;;;3588270;39;20051;-56
2021/04/11 10:49:27;;;;;;;4.53;1.60;;;;;;;;;;3587907;40;20283;-55
2021/04/11 10:52:26;;;;;;;3.40;1.65;;;;;;;;;;3589080;39;20136;-56
2021/04/11 10:55:33;;;;;;;4.88;1.88;;;;;;;;;;3589313;39;20060;-56
2021/04/11 10:58:25;;;;;;;4.18;1.75;;;;;;;;;;3589315;40;20045;-54
2021/04/11 11:01:22;;;;;;;4.07;1.58;;;;;;;;;;3587850;39;20141;-55
2021/04/11 11:04:09;;;;;;;4.78;2.08;;;;;;;;;;3587186;39;20052;-56
2021/04/11 11:06:55;;;;;;;4.75;1.90;;;;;;;;;;3588287;39;20052;-55
2021/04/11 11:09:48;;;;;;;4.53;1.83;;;;;;;;;;3588213;39;20083;-56
2021/04/11 11:12:44;;;;;;;4.93;2.03;;;;;;;;;;3587786;39;20045;-58
2021/04/11 11:15:22;;;;;;;6.50;2.05;;;;;;;;;;3587720;39;20075;-56
2021/04/11 11:18:10;;;;;;;3.78;1.58;;;;;;;;;;3588375;39;20055;-57
2021/04/11 11:20:49;;;;;;;4.32;1.98;;;;;;;;;;3587639;39;20133;-55
2021/04/11 11:23:30;;;;;;;5.15;2.30;;;;;;;;;;3588283;39;20037;-52
2021/04/11 11:26:27;;;;;;;3.97;1.80;;;;;;;;;;3587631;39;20040;-56
2021/04/11 11:29:11;;;;;;;3.70;1.85;;;;;;;;;;3589684;39;20048;-54
2021/04/11 11:31:40;;;;;;;5.55;2.80;;;;;;;;;;3587492;39;20372;-57
2021/04/11 11:34:45;;;;;;;4.72;1.80;;;;;;;;;;3588208;39;20090;-56
2021/04/11 11:37:10;;;;;;;3.75;1.88;;;;;;;;;;3587196;39;20040;-56
2021/04/11 11:39:50;;;;;;;8.82;3.88;;;;;;;;;;3589660;39;20051;-54
2021/04/11 11:42:41;;;;;;;5.85;2.45;;;;;;;;;;3589259;39;20116;-55
2021/04/11 11:45:41;;;;;;;4.73;2.10;;;;;;;;;;3589524;39;20032;-52
2021/04/11 11:48:13;;;;;;;5.93;2.40;;;;;;;;;;3591187;39;20332;-52
2021/04/11 11:51:02;;;;;;;10.32;2.40;;;;;;;;;;3589587;39;20083;-55
2021/04/11 11:53:38;;;;;;;5.78;2.33;;;;;;;;;;3589943;39;20044;-56
2021/04/11 11:56:16;;;;;;;5.95;2.60;;;;;;;;;;3590118;39;20348;-54
2021/04/11 11:59:01;;;;;;;4.45;2.45;;;;;;;;;;3588735;39;20850;-55
2021/04/11 12:01:37;;;;;;;4.03;2.22;;;;;;;;;;3589016;39;20044;-52
2021/04/11 12:04:34;;;;;;;6.20;3.13;;;;;;;;;;3590853;39;20371;-58
2021/04/11 12:07:05;;;;;;;5.82;2.70;;;;;;;;;;3589194;39;20029;-57
2021/04/11 12:09:45;;;;;;;4.00;2.33;;;;;;;;;;3587915;39;20039;-58
2021/04/11 12:12:13;;;;;;;6.70;3.70;;;;;;;;;;3587312;39;20029;-58
2021/04/11 12:14:57;;;;;;;6.40;3.35;;;;;;;;;;3587468;39;21428;-54
2021/04/11 12:17:34;;;;;;;5.65;3.30;;;;;;;;;;3587309;39;20029;-54
2021/04/11 12:20:12;;;;;;;4.53;2.53;;;;;;;;;;3589891;39;20041;-56
2021/04/11 12:22:51;;;;;;;6.78;4.55;;;;;;;;;;3587886;39;20032;-54
2021/04/11 12:25:28;;;;;;;4.30;2.67;;;;;;;;;;3587526;39;20041;-56
2021/04/11 12:27:54;;;;;;;8.35;4.75;;;;;;;;;;3587170;39;20081;-55
2021/04/11 12:30:30;;;;;;;5.88;2.85;;;;;;;;;;3587441;39;20521;-55
2021/04/11 12:33:05;;;;;;;8.15;2.42;;;;;;;;;;3589195;39;20076;-58
2021/04/11 12:36:02;;;;;;;6.80;3.10;;;;;;;;;;3588170;39;20032;-56
2021/04/11 12:38:41;;;;;;;6.47;2.55;;;;;;;;;;3589150;39;20279;-59
2021/04/11 12:41:18;;;;;;;5.57;2.58;;;;;;;;;;3588766;39;20056;-56
2021/04/11 12:44:29;;;;;;;4.85;2.67;;;;;;;;;;3588821;39;20053;-56
2021/04/11 12:47:15;;;;;;;6.43;2.90;;;;;;;;;;3586250;39;20073;-56
2021/04/11 12:50:00;;;;;;;6.47;3.00;;;;;;;;;;3588498;39;20274;-57
2021/04/11 12:52:40;;;;;;;6.00;2.95;;;;;;;;;;3587181;39;20369;-54
2021/04/11 12:55:21;;;;;;;3.88;2.22;;;;;;;;;;3588808;39;20257;-58
2021/04/11 12:57:55;;;;;;;;;;;;;;;;;;3588163;39;20047;-57
2021/04/11 13:00:26;;;;;;;4.15;2.38;;;;;;;;;;3589298;39;20037;-54
2021/04/11 13:03:15;;;;;;;5.03;2.90;;;;;;;;;;3590837;39;20298;-55
2021/04/11 13:05:47;;;;;;;4.60;3.03;;;;;;;;;;3587804;39;20079;-52
2021/04/11 13:08:19;;;;;;;5.80;3.33;;;;;;;;;;3587848;39;20376;-56
2021/04/11 13:10:56;;;;;;;5.03;2.88;;;;;;;;;;3586932;39;20044;-57
2021/04/11 13:13:39;;;;;;;4.95;2.95;;;;;;;;;;3587054;39;20265;-57
2021/04/11 13:16:30;;;;;;;5.90;2.90;;;;;;;;;;3589403;40;20044;-57
2021/04/11 13:19:13;;;;;;;4.95;1.42;;;;;;;;;;3588289;40;20033;-58
2021/04/11 13:22:03;;;;;;;3.70;1.58;;;;;;;;;;3589208;40;20033;-59
2021/04/11 13:24:45;;;;;;;2.90;1.50;;;;;;;;;;3590291;40;20052;-58
2021/04/11 13:27:32;;;;;;;1.67;0.85;;;;;;;;;;3588972;40;20462;-59
2021/04/11 13:30:19;;;;;;;1.95;0.90;;;;;;;;;;3589141;39;20062;-59
2021/04/11 13:32:58;;;;;;;3.13;1.00;;;;;;;;;;3588082;39;20066;-60
2021/04/11 13:35:40;;;;;;;1.65;0.93;;;;;;;;;;3588633;40;20049;-60
2021/04/11 13:38:17;;;;;;;1.98;1.10;;;;;;;;;;3588998;39;20303;-59
2021/04/11 13:40:45;;;;;;;2.75;1.50;;;;;;;;;;3588278;40;20805;-60
2021/04/11 13:43:22;;;;;;;3.00;1.42;;;;;;;;;;3587891;40;20055;-59
2021/04/11 13:45:50;;;;;;;3.03;1.42;;;;;;;;;;3588823;40;20056;-59
2021/04/11 13:48:34;;;;;;;2.97;1.67;;;;;;;;;;3589114;40;20055;-59
2021/04/11 13:51:14;;;;;;;3.00;1.60;;;;;;;;;;3589147;40;20052;-59
2021/04/11 13:53:49;;;;;;;2.40;1.15;;;;;;;;;;3589308;39;20048;-58
2021/04/11 13:56:23;;;;;;;2.83;1.20;;;;;;;;;;3587993;40;20056;-59
2021/04/11 13:58:57;;;;;;;1.65;0.85;;;;;;;;;;3591394;39;20036;-58
2021/04/11 14:01:49;;;;;;;5.32;1.13;;;;;;;;;;3588971;39;20040;-59
2021/04/11 14:04:23;;;;;;;2.30;0.85;;;;;;;;;;3596676;39;20060;-58
2021/04/11 14:07:07;;;;;;;1.95;0.75;;;;;;;;;;3589449;39;20148;-58
2021/04/11 14:09:44;;;;;;;2.10;0.85;;;;;;;;;;3588260;40;20032;-59
2021/04/11 14:12:32;;;;;;;2.88;1.00;;;;;;;;;;3588780;40;20024;-59
2021/04/11 14:15:02;;;;;;;1.25;0.68;;;;;;;;;;3589652;39;20028;-58
2021/04/11 14:17:54;;;;;;;1.73;0.90;;;;;;;;;;3587635;40;20045;-57
2021/04/11 14:20:37;;;;;;;1.30;0.73;;;;;;;;;;3588542;40;20069;-58
2021/04/11 14:23:23;;;;;;;2.13;0.80;;;;;;;;;;3588334;39;20137;-58
2021/04/11 14:26:10;;;;;;;2.28;1.20;;;;;;;;;;3588017;39;20283;-58
2021/04/11 14:29:17;;;;;;;1.85;0.80;;;;;;;;;;3588075;39;20125;-58
2021/04/11 14:31:56;;;;;;;2.50;0.93;;;;;;;;;;3587089;39;20314;-57
2021/04/11 14:34:50;;;;;;;2.20;1.10;;;;;;;;;;3586638;39;20312;-58
2021/04/11 14:37:18;;;;;;;3.88;1.15;;;;;;;;;;3588218;40;20048;-58
2021/04/11 14:39:50;;;;;;;6.40;1.42;;;;;;;;;;3587030;40;20032;-59
2021/04/11 14:42:28;;;;;;;2.22;1.20;;;;;;;;;;3587676;40;20055;-58
2021/04/11 14:45:04;;;;;;;2.25;0.90;;;;;;;;;;3589164;40;20040;-59
2021/04/11 14:47:48;;;;;;;2.90;1.30;;;;;;;;;;3588059;40;20040;-59
2021/04/11 14:50:25;;;;;;;2.03;1.00;;;;;;;;;;3586064;39;20029;-58
2021/04/11 14:53:00;;;;;;;2.30;1.13;;;;;;;;;;3587941;39;20392;-59
2021/04/11 14:55:39;;;;;;;1.30;0.80;;;;;;;;;;3587644;39;20097;-59
2021/04/11 14:58:27;;;;;;;1.80;0.90;;;;;;;;;;3589475;39;20352;-58
2021/04/11 15:01:00;;;;;;;1.98;0.93;;;;;;;;;;3588888;39;20040;-58
2021/04/11 15:03:44;;;;;;;3.00;1.30;;;;;;;;;;3587277;39;20094;-59
2021/04/11 15:06:37;;;;;;;3.92;1.00;;;;;;;;;;3588560;39;20039;-58
2021/04/11 15:09:21;;;;;;;2.97;1.38;;;;;;;;;;3589228;39;20044;-58
2021/04/11 15:12:25;;;;;;;3.42;1.13;;;;;;;;;;3588645;39;20032;-58
2021/04/11 15:15:07;;;;;;;1.98;1.05;;;;;;;;;;3587492;39;20673;-58
2021/04/11 15:18:11;;;;;;;1.65;0.90;;;;;;;;;;3588345;39;20044;-57
2021/04/11 15:20:39;;;;;;;2.60;1.02;;;;;;;;;;3589759;39;20276;-56
2021/04/11 15:23:18;;;;;;;1.83;1.02;;;;;;;;;;3587149;39;20044;-57
2021/04/11 15:25:59;;;;;;;2.70;1.20;;;;;;;;;;3588289;39;20067;-58
2021/04/11 15:28:31;;;;;;;2.65;1.40;;;;;;;;;;3588838;39;20064;-58
2021/04/11 15:31:16;;;;;;;2.13;1.10;;;;;;;;;;3589379;39;20031;-58
2021/04/11 15:34:08;;;;;;;3.72;1.58;;;;;;;;;;3588215;39;20141;-58
2021/04/11 15:36:43;;;;;;;4.57;1.45;;;;;;;;;;3586703;39;20339;-59
2021/04/11 15:39:21;;;;;;;2.60;1.30;;;;;;;;;;3587693;39;20044;-58
2021/04/11 15:42:05;;;;;;;2.80;1.42;;;;;;;;;;3586348;39;20315;-56
2021/04/11 15:44:49;;;;;;;2.28;1.17;;;;;;;;;;3586964;39;20093;-54
2021/04/11 15:47:35;;;;;;;1.98;1.10;;;;;;;;;;3587414;40;20563;-57
2021/04/11 15:50:09;;;;;;;3.42;1.80;;;;;;;;;;3587415;39;20043;-57
2021/04/11 15:52:57;;;;;;;2.20;1.20;;;;;;;;;;3587430;40;20121;-57
2021/04/11 15:55:46;;;;;;;3.92;1.83;;;;;;;;;;3586935;40;20468;-56